createdAt,value
2023-03-12T00:00:52.422Z,-2.46
2023-03-12T00:01:54.624Z,-2.41
2023-03-12T00:02:59.002Z,-2.36
2023-03-12T00:04:02.087Z,-2.31
2023-03-12T00:05:05.918Z,-2.27
2023-03-12T00:06:10.772Z,-2.21
2023-03-12T00:07:13.991Z,-2.17
2023-03-12T00:08:16.006Z,-2.10
2023-03-12T00:09:19.198Z,-2.05
2023-03-12T00:10:21.144Z,-2.00
2023-03-12T00:11:24.525Z,-1.96
2023-03-12T00:12:26.529Z,-1.92
2023-03-12T00:13:29.367Z,-1.89
2023-03-12T00:14:32.504Z,-1.84
2023-03-12T00:15:36.401Z,-1.79
2023-03-12T00:16:39.386Z,-1.76
2023-03-12T00:17:41.709Z,-1.73
2023-03-12T00:18:49.086Z,-1.72
2023-03-12T00:19:51.923Z,-1.70
2023-03-12T00:20:55.623Z,-1.69
2023-03-12T00:21:57.592Z,-1.66
2023-03-12T00:23:00.584Z,-1.64
2023-03-12T00:24:02.749Z,-1.64
2023-03-12T00:25:07.744Z,-1.62
2023-03-12T00:26:11.439Z,-1.60
2023-03-12T00:27:14.701Z,-1.58
2023-03-12T00:28:16.743Z,-1.58
2023-03-12T00:29:19.720Z,-1.56
2023-03-12T00:30:21.901Z,-1.54
2023-03-12T00:31:27.236Z,-1.53
2023-03-12T00:32:29.734Z,-1.52
2023-03-12T00:33:33.179Z,-1.53
2023-03-12T00:34:37.701Z,-1.54
2023-03-12T00:35:39.640Z,-1.53
2023-03-12T00:37:01.220Z,-1.54
2023-03-12T00:38:03.217Z,-1.55
2023-03-12T00:39:06.338Z,-1.55
2023-03-12T00:40:10.952Z,-1.57
2023-03-12T00:41:14.519Z,-1.58
2023-03-12T00:42:17.517Z,-1.59
2023-03-12T00:43:19.634Z,-1.60
2023-03-12T00:44:23.095Z,-1.62
2023-03-12T00:45:25.096Z,-1.64
2023-03-12T00:46:28.139Z,-1.66
2023-03-12T00:47:30.146Z,-1.69
2023-03-12T00:48:33.218Z,-1.70
2023-03-12T00:49:36.637Z,-1.72
2023-03-12T00:50:39.660Z,-1.75
2023-03-12T00:51:41.616Z,-1.77
2023-03-12T00:52:44.906Z,-1.80
2023-03-12T00:53:47.648Z,-1.82
2023-03-12T00:54:50.899Z,-1.85
2023-03-12T00:55:53.003Z,-1.86
2023-03-12T00:56:56.120Z,-1.87
2023-03-12T00:57:58.137Z,-1.88
2023-03-12T00:59:01.241Z,-1.89
2023-03-12T01:00:04.915Z,-1.87
2023-03-12T01:01:07.904Z,-1.86
2023-03-12T01:02:10.974Z,-1.83
2023-03-12T01:03:13.119Z,-1.81
2023-03-12T01:04:17.702Z,-1.80
2023-03-12T01:05:21.356Z,-1.77
2023-03-12T01:06:24.357Z,-1.76
2023-03-12T01:07:26.356Z,-1.74
2023-03-12T01:08:29.257Z,-1.73
2023-03-12T01:09:31.218Z,-1.73
2023-03-12T01:10:34.197Z,-1.73
2023-03-12T01:11:37.226Z,-1.73
2023-03-12T01:12:40.277Z,-1.75
2023-03-12T01:13:43.181Z,-1.76
2023-03-12T01:14:46.097Z,-1.77
2023-03-12T01:15:48.120Z,-1.77
2023-03-12T01:16:52.566Z,-1.78
2023-03-12T01:17:55.638Z,-1.78
2023-03-12T01:18:59.734Z,-1.77
2023-03-12T01:20:02.016Z,-1.77
2023-03-12T01:21:06.818Z,-1.78
2023-03-12T01:22:09.164Z,-1.77
2023-03-12T01:23:12.224Z,-1.78
2023-03-12T01:24:14.160Z,-1.77
2023-03-12T01:25:17.619Z,-1.77
2023-03-12T01:26:19.517Z,-1.77
2023-03-12T01:27:22.438Z,-1.77
2023-03-12T01:28:24.677Z,-1.76
2023-03-12T01:29:27.629Z,-1.77
2023-03-12T01:30:29.899Z,-1.77
2023-03-12T01:31:33.683Z,-1.76
2023-03-12T01:32:35.771Z,-1.77
2023-03-12T01:33:38.840Z,-1.77
2023-03-12T01:34:40.867Z,-1.74
2023-03-12T01:35:43.989Z,-1.75
2023-03-12T01:36:47.802Z,-1.74
2023-03-12T01:37:51.319Z,-1.73
2023-03-12T01:38:54.720Z,-1.71
2023-03-12T01:39:57.759Z,-1.71
2023-03-12T01:41:21.134Z,-1.71
2023-03-12T01:42:24.095Z,-1.71
2023-03-12T01:43:30.455Z,-1.72
2023-03-12T01:44:53.109Z,-1.71
2023-03-12T01:46:06.367Z,-1.72
2023-03-12T01:47:11.732Z,-1.74
2023-03-12T01:48:13.916Z,-1.75
2023-03-12T01:49:19.239Z,-1.73
2023-03-12T01:50:21.481Z,-1.73
2023-03-12T01:51:26.934Z,-1.73
2023-03-12T01:52:33.551Z,-1.74
2023-03-12T01:53:37.137Z,-1.75
2023-03-12T01:54:42.851Z,-1.77
2023-03-12T01:55:45.156Z,-1.78
2023-03-12T01:56:48.785Z,-1.77
2023-03-12T01:57:55.137Z,-1.78
2023-03-12T01:59:01.041Z,-1.77
2023-03-12T02:00:07.390Z,-1.79
2023-03-12T02:01:17.633Z,-1.79
2023-03-12T02:02:26.630Z,-1.82
2023-03-12T02:03:29.391Z,-1.85
2023-03-12T02:04:33.330Z,-1.89
2023-03-12T02:05:43.621Z,-1.92
2023-03-12T02:06:51.153Z,-1.94
2023-03-12T02:07:55.050Z,-1.97
2023-03-12T02:08:59.613Z,-1.99
2023-03-12T02:10:03.480Z,-2.00
2023-03-12T02:11:05.559Z,-2.02
2023-03-12T02:12:09.865Z,-2.03
2023-03-12T02:13:12.489Z,-2.03
2023-03-12T02:14:20.490Z,-2.03
2023-03-12T02:15:23.811Z,-2.04
2023-03-12T02:16:27.421Z,-2.05
2023-03-12T02:17:31.182Z,-2.07
2023-03-12T02:18:34.651Z,-2.08
2023-03-12T02:19:44.462Z,-2.10
2023-03-12T02:20:51.068Z,-2.12
2023-03-12T02:21:54.075Z,-2.13
2023-03-12T02:23:01.390Z,-2.14
2023-03-12T02:24:08.348Z,-2.13
2023-03-12T02:25:22.175Z,-2.13
2023-03-12T02:26:25.988Z,-2.14
2023-03-12T02:27:28.471Z,-2.14
2023-03-12T02:28:31.571Z,-2.13
2023-03-12T02:29:34.773Z,-2.13
2023-03-12T02:30:38.670Z,-2.13
2023-03-12T02:31:44.595Z,-2.14
2023-03-12T02:32:49.911Z,-2.18
2023-03-12T02:33:53.102Z,-2.21
2023-03-12T02:34:57.293Z,-2.23
2023-03-12T02:35:59.413Z,-2.23
2023-03-12T02:37:03.414Z,-2.25
2023-03-12T02:38:42.022Z,-2.24
2023-03-12T02:39:44.731Z,-2.26
2023-03-12T02:41:14.216Z,-2.31
2023-03-12T02:42:17.416Z,-2.31
2023-03-12T02:43:21.252Z,-2.33
2023-03-12T02:44:25.492Z,-2.36
2023-03-12T02:45:29.735Z,-2.38
2023-03-12T02:46:36.265Z,-2.40
2023-03-12T02:47:38.489Z,-2.42
2023-03-12T02:48:41.995Z,-2.43
2023-03-12T02:49:43.990Z,-2.43
2023-03-12T02:50:47.290Z,-2.43
2023-03-12T02:51:51.186Z,-2.45
2023-03-12T02:52:54.050Z,-2.47
2023-03-12T02:53:56.292Z,-2.48
2023-03-12T02:54:59.351Z,-2.49
2023-03-12T02:56:01.308Z,-2.51
2023-03-12T02:57:06.366Z,-2.53
2023-03-12T02:58:09.377Z,-2.55
2023-03-12T02:59:13.308Z,-2.56
2023-03-12T03:00:18.471Z,-2.58
2023-03-12T03:01:25.944Z,-2.59
2023-03-12T03:02:27.945Z,-2.59
2023-03-12T03:03:30.958Z,-2.60
2023-03-12T03:04:34.804Z,-2.63
2023-03-12T03:05:38.230Z,-2.65
2023-03-12T03:06:42.327Z,-2.68
2023-03-12T03:07:45.732Z,-2.70
2023-03-12T03:08:47.685Z,-2.72
2023-03-12T03:09:50.734Z,-2.74
2023-03-12T03:10:53.134Z,-2.77
2023-03-12T03:11:56.269Z,-2.78
2023-03-12T03:13:01.329Z,-2.79
2023-03-12T03:14:06.903Z,-2.80
2023-03-12T03:15:10.552Z,-2.82
2023-03-12T03:16:13.823Z,-2.84
2023-03-12T03:17:16.126Z,-2.85
2023-03-12T03:18:19.377Z,-2.88
2023-03-12T03:19:21.351Z,-2.89
2023-03-12T03:20:26.009Z,-2.92
2023-03-12T03:21:28.100Z,-2.94
2023-03-12T03:22:31.164Z,-2.97
2023-03-12T03:23:33.991Z,-2.98
2023-03-12T03:24:37.239Z,-3.00
2023-03-12T03:25:39.467Z,-3.01
2023-03-12T03:26:42.715Z,-3.04
2023-03-12T03:27:44.674Z,-3.05
2023-03-12T03:28:49.466Z,-3.08
2023-03-12T03:29:52.067Z,-3.11
2023-03-12T03:30:58.130Z,-3.12
2023-03-12T03:32:00.253Z,-3.12
2023-03-12T03:33:03.508Z,-3.12
2023-03-12T03:34:05.503Z,-3.11
2023-03-12T03:35:09.246Z,-3.14
2023-03-12T03:36:14.809Z,-3.15
2023-03-12T03:37:24.207Z,-3.17
2023-03-12T03:38:26.795Z,-3.16
2023-03-12T03:39:29.904Z,-3.18
2023-03-12T03:40:32.198Z,-3.19
2023-03-12T03:41:35.248Z,-3.20
2023-03-12T03:42:37.825Z,-3.20
2023-03-12T03:43:40.730Z,-3.22
2023-03-12T03:44:44.194Z,-3.25
2023-03-12T03:45:47.674Z,-3.26
2023-03-12T03:46:50.083Z,-3.30
2023-03-12T03:47:53.482Z,-3.30
2023-03-12T03:48:56.042Z,-3.32
2023-03-12T03:49:59.669Z,-3.33
2023-03-12T03:51:02.022Z,-3.35
2023-03-12T03:52:07.546Z,-3.38
2023-03-12T03:53:12.672Z,-3.39
2023-03-12T03:54:15.050Z,-3.40
2023-03-12T03:55:19.770Z,-3.41
2023-03-12T03:56:21.865Z,-3.42
2023-03-12T03:57:26.725Z,-3.44
2023-03-12T03:58:29.326Z,-3.45
2023-03-12T03:59:32.464Z,-3.47
2023-03-12T04:00:35.958Z,-3.48
2023-03-12T04:01:39.222Z,-3.51
2023-03-12T04:02:41.821Z,-3.51
2023-03-12T04:03:47.582Z,-3.53
2023-03-12T04:04:49.663Z,-3.55
2023-03-12T04:05:55.898Z,-3.56
2023-03-12T04:06:58.266Z,-3.58
2023-03-12T04:08:03.202Z,-3.58
2023-03-12T04:09:08.281Z,-3.59
2023-03-12T04:10:12.907Z,-3.61
2023-03-12T04:11:17.724Z,-3.64
2023-03-12T04:12:21.020Z,-3.65
2023-03-12T04:13:23.000Z,-3.66
2023-03-12T04:14:26.084Z,-3.66
2023-03-12T04:15:28.265Z,-3.66
2023-03-12T04:16:32.992Z,-3.67
2023-03-12T04:17:36.283Z,-3.67
2023-03-12T04:18:40.159Z,-3.67
2023-03-12T04:19:42.478Z,-3.67
2023-03-12T04:20:46.399Z,-3.66
2023-03-12T04:21:48.658Z,-3.65
2023-03-12T04:22:51.730Z,-3.65
2023-03-12T04:23:53.730Z,-3.66
2023-03-12T04:25:00.702Z,-3.67
2023-03-12T04:26:02.864Z,-3.68
2023-03-12T04:27:06.717Z,-3.70
2023-03-12T04:28:10.032Z,-3.70
2023-03-12T04:29:16.182Z,-3.71
2023-03-12T04:30:18.478Z,-3.72
2023-03-12T04:31:21.499Z,-3.72
2023-03-12T04:32:27.039Z,-3.73
2023-03-12T04:33:31.841Z,-3.74
2023-03-12T04:34:34.097Z,-3.76
2023-03-12T04:35:37.848Z,-3.76
2023-03-12T04:36:39.959Z,-3.76
2023-03-12T04:37:43.615Z,-3.76
2023-03-12T04:38:47.177Z,-3.75
2023-03-12T04:39:52.021Z,-3.73
2023-03-12T04:41:01.058Z,-3.72
2023-03-12T04:42:04.179Z,-3.69
2023-03-12T04:43:06.656Z,-3.69
2023-03-12T04:44:12.544Z,-3.68
2023-03-12T04:45:15.157Z,-3.68
2023-03-12T04:46:21.632Z,-3.70
2023-03-12T04:47:24.039Z,-3.71
2023-03-12T04:48:29.183Z,-3.72
2023-03-12T04:49:32.758Z,-3.72
2023-03-12T04:50:34.687Z,-3.74
2023-03-12T04:51:37.696Z,-3.74
2023-03-12T04:52:40.879Z,-3.74
2023-03-12T04:53:44.685Z,-3.73
2023-03-12T04:54:48.184Z,-3.73
2023-03-12T04:55:51.760Z,-3.71
2023-03-12T04:56:53.759Z,-3.69
2023-03-12T04:57:58.600Z,-3.67
2023-03-12T04:59:00.901Z,-3.65
2023-03-12T05:00:10.238Z,-3.62
2023-03-12T05:01:21.422Z,-3.60
2023-03-12T05:02:25.401Z,-3.58
2023-03-12T05:03:29.599Z,-3.57
2023-03-12T05:04:34.109Z,-3.56
2023-03-12T05:05:36.819Z,-3.54
2023-03-12T05:06:39.922Z,-3.53
2023-03-12T05:07:41.964Z,-3.53
2023-03-12T05:08:46.199Z,-3.51
2023-03-12T05:09:49.076Z,-3.51
2023-03-12T05:10:52.401Z,-3.49
2023-03-12T05:11:54.492Z,-3.48
2023-03-12T05:12:58.484Z,-3.47
2023-03-12T05:14:00.914Z,-3.45
2023-03-12T05:15:05.558Z,-3.44
2023-03-12T05:16:08.262Z,-3.43
2023-03-12T05:17:11.282Z,-3.43
2023-03-12T05:18:14.220Z,-3.38
2023-03-12T05:19:18.621Z,-3.34
2023-03-12T05:20:20.898Z,-3.32
2023-03-12T05:21:24.642Z,-3.28
2023-03-12T05:22:29.574Z,-3.25
2023-03-12T05:23:34.360Z,-3.20
2023-03-12T05:24:36.400Z,-3.15
2023-03-12T05:25:40.478Z,-3.10
2023-03-12T05:26:43.293Z,-3.06
2023-03-12T05:27:50.859Z,-3.00
2023-03-12T05:28:53.736Z,-2.95
2023-03-12T05:29:59.500Z,-2.91
2023-03-12T05:31:02.034Z,-2.88
2023-03-12T05:32:07.498Z,-2.85
2023-03-12T05:33:10.006Z,-2.82
2023-03-12T05:34:14.058Z,-2.78
2023-03-12T05:35:19.680Z,-2.74
2023-03-12T05:36:22.978Z,-2.71
2023-03-12T05:37:25.039Z,-2.70
2023-03-12T05:38:27.944Z,-2.66
2023-03-12T05:39:30.135Z,-2.64
2023-03-12T05:40:38.059Z,-2.61
2023-03-12T05:41:40.409Z,-2.58
2023-03-12T05:42:48.141Z,-2.57
2023-03-12T05:43:50.232Z,-2.54
2023-03-12T05:44:53.894Z,-2.52
2023-03-12T05:45:59.894Z,-2.49
2023-03-12T05:47:03.177Z,-2.48
2023-03-12T05:48:05.569Z,-2.45
2023-03-12T05:49:09.097Z,-2.43
2023-03-12T05:50:12.039Z,-2.41
2023-03-12T05:51:16.653Z,-2.39
2023-03-12T05:52:18.616Z,-2.37
2023-03-12T05:53:21.657Z,-2.33
2023-03-12T05:54:24.671Z,-2.31
2023-03-12T05:55:27.572Z,-2.28
2023-03-12T05:56:30.942Z,-2.27
2023-03-12T05:57:32.979Z,-2.26
2023-03-12T05:58:38.077Z,-2.23
2023-03-12T05:59:40.212Z,-2.22
2023-03-12T06:00:44.770Z,-2.18
2023-03-12T06:01:48.164Z,-2.17
2023-03-12T06:02:52.176Z,-2.14
2023-03-12T06:03:56.217Z,-2.12
2023-03-12T06:05:00.720Z,-2.10
2023-03-12T06:06:02.743Z,-2.06
2023-03-12T06:07:07.187Z,-2.03
2023-03-12T06:08:10.727Z,-1.98
2023-03-12T06:09:14.779Z,-1.93
2023-03-12T06:10:19.263Z,-1.92
2023-03-12T06:11:22.211Z,-1.90
2023-03-12T06:12:24.437Z,-1.87
2023-03-12T06:13:28.843Z,-1.86
2023-03-12T06:14:33.244Z,-1.82
2023-03-12T06:15:36.291Z,-1.76
2023-03-12T06:16:41.288Z,-1.74
2023-03-12T06:17:43.335Z,-1.71
2023-03-12T06:18:47.871Z,-1.67
2023-03-12T06:19:52.737Z,-1.63
2023-03-12T06:20:56.588Z,-1.60
2023-03-12T06:21:58.632Z,-1.56
2023-03-12T06:23:04.860Z,-1.52
2023-03-12T06:24:09.369Z,-1.48
2023-03-12T06:25:17.480Z,-1.47
2023-03-12T06:26:20.043Z,-1.46
2023-03-12T06:27:22.979Z,-1.45
2023-03-12T06:28:24.984Z,-1.43
2023-03-12T06:29:27.968Z,-1.42
2023-03-12T06:30:29.891Z,-1.41
2023-03-12T06:31:32.900Z,-1.41
2023-03-12T06:32:35.242Z,-1.42
2023-03-12T06:33:38.406Z,-1.41
2023-03-12T06:34:40.438Z,-1.40
2023-03-12T06:35:43.553Z,-1.39
2023-03-12T06:36:45.539Z,-1.38
2023-03-12T06:37:48.564Z,-1.35
2023-03-12T06:38:54.009Z,-1.32
2023-03-12T06:39:58.324Z,-1.29
2023-03-12T06:41:02.387Z,-1.24
2023-03-12T06:42:05.406Z,-1.21
2023-03-12T06:43:12.153Z,-1.19
2023-03-12T06:44:15.188Z,-1.15
2023-03-12T06:45:17.197Z,-1.12
2023-03-12T06:46:22.398Z,-1.07
2023-03-12T06:47:24.466Z,-1.05
2023-03-12T06:48:28.546Z,-1.03
2023-03-12T06:49:33.385Z,-1.02
2023-03-12T06:50:35.870Z,-0.98
2023-03-12T06:51:38.760Z,-0.93
2023-03-12T06:52:40.683Z,-0.90
2023-03-12T06:53:43.945Z,-0.85
2023-03-12T06:54:47.225Z,-0.81
2023-03-12T06:55:51.180Z,-0.73
2023-03-12T06:56:54.185Z,-0.64
2023-03-12T06:57:56.134Z,-0.55
2023-03-12T06:58:59.165Z,-0.47
2023-03-12T07:00:01.791Z,-0.38
2023-03-12T07:01:05.281Z,-0.30
2023-03-12T07:02:07.211Z,-0.24
2023-03-12T07:03:10.059Z,-0.22
2023-03-12T07:04:11.863Z,-0.17
2023-03-12T07:05:14.732Z,-0.13
2023-03-12T07:06:19.214Z,-0.06
2023-03-12T07:07:21.985Z,-0.01
2023-03-12T07:08:24.215Z,0.01
2023-03-12T07:09:27.105Z,0.02
2023-03-12T07:10:30.602Z,0.02
2023-03-12T07:11:33.869Z,0.03
2023-03-12T07:12:36.584Z,0.00
2023-03-12T07:13:39.398Z,-0.01
2023-03-12T07:14:41.371Z,0.03
2023-03-12T07:15:45.962Z,0.11
2023-03-12T07:16:48.918Z,0.21
2023-03-12T07:17:51.711Z,0.33
2023-03-12T07:18:53.613Z,0.43
2023-03-12T07:19:56.601Z,0.55
2023-03-12T07:20:58.418Z,0.76
2023-03-12T07:22:02.255Z,1.01
2023-03-12T07:23:04.132Z,1.26
2023-03-12T07:24:08.825Z,1.34
2023-03-12T07:25:10.979Z,1.34
2023-03-12T07:26:18.132Z,1.30
2023-03-12T07:27:19.972Z,1.24
2023-03-12T07:28:23.780Z,1.19
2023-03-12T07:29:25.592Z,1.09
2023-03-12T07:30:28.678Z,1.00
2023-03-12T07:31:31.750Z,0.94
2023-03-12T07:32:35.373Z,0.91
2023-03-12T07:33:38.542Z,0.90
2023-03-12T07:34:40.495Z,0.88
2023-03-12T07:35:43.414Z,0.85
2023-03-12T07:36:45.381Z,0.82
2023-03-12T07:37:48.534Z,0.83
2023-03-12T07:38:50.336Z,0.81
2023-03-12T07:39:54.634Z,0.80
2023-03-12T07:40:58.499Z,0.77
2023-03-12T07:42:02.900Z,0.81
2023-03-12T07:43:11.218Z,0.92
2023-03-12T07:44:16.208Z,0.97
2023-03-12T07:45:18.336Z,1.10
2023-03-12T07:46:21.184Z,1.23
2023-03-12T07:47:24.756Z,1.32
2023-03-12T07:48:27.814Z,1.47
2023-03-12T07:49:29.868Z,1.58
2023-03-12T07:50:33.291Z,1.67
2023-03-12T07:51:35.044Z,1.74
2023-03-12T07:52:37.858Z,1.85
2023-03-12T07:53:40.753Z,1.86
2023-03-12T07:54:43.693Z,1.83
2023-03-12T07:55:48.143Z,1.79
2023-03-12T07:56:50.737Z,1.75
2023-03-12T07:57:56.538Z,1.72
2023-03-12T07:58:59.526Z,1.76
2023-03-12T08:00:01.828Z,1.88
2023-03-12T08:01:14.810Z,2.00
2023-03-12T08:02:16.949Z,2.09
2023-03-12T08:03:19.937Z,2.15
2023-03-12T08:04:24.522Z,2.20
2023-03-12T08:05:27.052Z,2.17
2023-03-12T08:06:30.417Z,2.12
2023-03-12T08:07:34.753Z,2.07
2023-03-12T08:08:38.349Z,2.00
2023-03-12T08:09:40.820Z,1.94
2023-03-12T08:10:44.591Z,1.90
2023-03-12T08:11:46.821Z,1.85
2023-03-12T08:12:50.107Z,1.82
2023-03-12T08:13:53.216Z,1.78
2023-03-12T08:14:56.059Z,1.71
2023-03-12T08:15:57.928Z,1.63
2023-03-12T08:17:01.098Z,1.58
2023-03-12T08:18:04.109Z,1.55
2023-03-12T08:19:06.222Z,1.56
2023-03-12T08:20:10.578Z,1.59
2023-03-12T08:21:16.482Z,1.61
2023-03-12T08:22:18.424Z,1.61
2023-03-12T08:23:22.038Z,1.63
2023-03-12T08:24:23.920Z,1.66
2023-03-12T08:25:26.903Z,1.72
2023-03-12T08:26:28.697Z,1.80
2023-03-12T08:27:31.788Z,1.92
2023-03-12T08:28:34.783Z,2.00
2023-03-12T08:29:38.041Z,2.13
2023-03-12T08:30:40.788Z,2.21
2023-03-12T08:31:57.450Z,2.31
2023-03-12T08:33:04.616Z,2.34
2023-03-12T08:34:06.396Z,2.34
2023-03-12T08:35:27.783Z,2.26
2023-03-12T08:36:29.726Z,2.23
2023-03-12T08:37:32.981Z,2.28
2023-03-12T08:38:35.978Z,2.37
2023-03-12T08:39:37.860Z,2.44
2023-03-12T08:40:40.617Z,2.47
2023-03-12T08:41:42.538Z,2.42
2023-03-12T08:42:45.751Z,2.26
2023-03-12T08:43:48.510Z,2.13
2023-03-12T08:44:51.638Z,1.98
2023-03-12T08:45:55.747Z,1.92
2023-03-12T08:46:58.531Z,1.90
2023-03-12T08:48:00.655Z,1.87
2023-03-12T08:49:03.445Z,1.86
2023-03-12T08:50:06.396Z,1.89
2023-03-12T08:51:09.542Z,1.88
2023-03-12T08:52:11.456Z,1.86
2023-03-12T08:53:14.164Z,1.86
2023-03-12T08:54:15.973Z,1.85
2023-03-12T08:55:18.961Z,1.85
2023-03-12T08:56:20.717Z,1.87
2023-03-12T08:57:23.556Z,1.90
2023-03-12T08:58:44.737Z,1.95
2023-03-12T08:59:46.670Z,2.01
2023-03-12T09:00:50.812Z,2.01
2023-03-12T09:01:53.596Z,2.05
2023-03-12T09:02:58.266Z,2.07
2023-03-12T09:04:02.453Z,2.13
2023-03-12T09:05:05.091Z,2.23
2023-03-12T09:06:13.069Z,2.34
2023-03-12T09:07:15.070Z,2.37
2023-03-12T09:08:18.765Z,2.35
2023-03-12T09:09:20.574Z,2.30
2023-03-12T09:10:23.350Z,2.28
2023-03-12T09:11:25.472Z,2.31
2023-03-12T09:12:28.432Z,2.40
2023-03-12T09:13:52.315Z,2.55
2023-03-12T09:15:03.734Z,2.73
2023-03-12T09:16:09.356Z,2.76
2023-03-12T09:17:12.115Z,2.78
2023-03-12T09:18:14.964Z,2.82
2023-03-12T09:19:16.895Z,2.82
2023-03-12T09:20:19.956Z,2.82
2023-03-12T09:21:22.052Z,2.83
2023-03-12T09:22:24.858Z,2.87
2023-03-12T09:23:27.491Z,2.90
2023-03-12T09:24:30.247Z,2.94
2023-03-12T09:25:32.121Z,3.03
2023-03-12T09:26:35.099Z,3.12
2023-03-12T09:27:37.598Z,3.18
2023-03-12T09:28:40.600Z,3.26
2023-03-12T09:29:58.831Z,3.37
2023-03-12T09:31:02.747Z,3.39
2023-03-12T09:32:07.720Z,3.39
2023-03-12T09:33:09.615Z,3.48
2023-03-12T09:34:12.315Z,3.64
2023-03-12T09:35:16.746Z,3.83
2023-03-12T09:36:19.524Z,3.99
2023-03-12T09:37:23.931Z,4.09
2023-03-12T09:38:27.466Z,4.14
2023-03-12T09:39:30.184Z,4.16
2023-03-12T09:40:36.537Z,4.22
2023-03-12T09:41:41.227Z,4.27
2023-03-12T09:42:47.673Z,4.24
2023-03-12T09:43:54.182Z,4.25
2023-03-12T09:44:57.556Z,4.26
2023-03-12T09:46:01.052Z,4.28
2023-03-12T09:47:12.435Z,4.24
2023-03-12T09:48:15.892Z,4.17
2023-03-12T09:49:20.846Z,4.12
2023-03-12T09:50:27.747Z,4.00
2023-03-12T09:51:34.973Z,3.95
2023-03-12T09:52:42.741Z,3.90
2023-03-12T09:53:48.502Z,3.84
2023-03-12T09:54:55.539Z,3.76
2023-03-12T09:55:59.773Z,3.68
2023-03-12T09:57:05.992Z,3.66
2023-03-12T09:58:14.086Z,3.69
2023-03-12T09:59:15.843Z,3.79
2023-03-12T10:00:21.551Z,3.90
2023-03-12T10:01:33.403Z,4.06
2023-03-12T10:02:58.424Z,4.14
2023-03-12T10:04:25.698Z,4.14
2023-03-12T10:05:36.690Z,4.14
2023-03-12T10:06:43.047Z,4.12
2023-03-12T10:07:49.855Z,4.10
2023-03-12T10:09:01.875Z,3.99
2023-03-12T10:10:13.773Z,3.83
2023-03-12T10:11:23.658Z,3.70
2023-03-12T10:12:33.420Z,3.57
2023-03-12T10:13:47.230Z,3.45
2023-03-12T10:15:00.873Z,3.35
2023-03-12T10:16:13.040Z,3.31
2023-03-12T10:17:26.802Z,3.22
2023-03-12T10:18:39.596Z,3.16
2023-03-12T10:19:57.578Z,3.21
2023-03-12T10:21:15.388Z,3.35
2023-03-12T10:22:25.689Z,3.47
2023-03-12T10:23:36.934Z,3.50
2023-03-12T10:24:48.890Z,3.44
2023-03-12T10:25:53.599Z,3.43
2023-03-12T10:26:57.427Z,3.42
2023-03-12T10:28:02.431Z,3.47
2023-03-12T10:29:09.576Z,3.55
2023-03-12T10:30:16.974Z,3.64
2023-03-12T10:31:22.129Z,3.68
2023-03-12T10:32:28.918Z,3.73
2023-03-12T10:33:41.350Z,3.77
2023-03-12T10:34:45.950Z,3.84
2023-03-12T10:35:48.724Z,3.90
2023-03-12T10:36:50.757Z,3.91
2023-03-12T10:37:55.876Z,3.87
2023-03-12T10:38:57.621Z,3.83
2023-03-12T10:40:00.989Z,3.80
2023-03-12T10:41:14.355Z,3.86
2023-03-12T10:42:18.229Z,3.86
2023-03-12T10:43:20.981Z,3.92
2023-03-12T10:44:25.350Z,3.96
2023-03-12T10:45:32.867Z,3.99
2023-03-12T10:47:04.448Z,3.96
2023-03-12T10:48:08.735Z,3.91
2023-03-12T10:49:31.390Z,3.90
2023-03-12T10:50:35.422Z,3.92
2023-03-12T10:51:54.334Z,3.90
2023-03-12T10:53:18.448Z,3.82
2023-03-12T10:54:22.403Z,3.80
2023-03-12T10:55:27.464Z,3.87
2023-03-12T10:56:29.216Z,3.96
2023-03-12T10:57:40.928Z,4.12
2023-03-12T10:58:45.328Z,4.26
2023-03-12T10:59:50.148Z,4.30
2023-03-12T11:00:56.939Z,4.37
2023-03-12T11:02:00.505Z,4.44
2023-03-12T11:03:05.390Z,4.54
2023-03-12T11:04:16.659Z,4.51
2023-03-12T11:05:25.636Z,4.54
2023-03-12T11:06:29.629Z,4.62
2023-03-12T11:07:33.692Z,4.70
2023-03-12T11:08:37.201Z,4.81
2023-03-12T11:09:40.097Z,4.94
2023-03-12T11:10:44.913Z,4.99
2023-03-12T11:11:47.927Z,4.99
2023-03-12T11:12:59.865Z,5.01
2023-03-12T11:14:16.278Z,5.07
2023-03-12T11:15:20.560Z,5.18
2023-03-12T11:16:30.792Z,5.24
2023-03-12T11:17:34.291Z,5.26
2023-03-12T11:18:38.685Z,5.16
2023-03-12T11:19:44.396Z,5.13
2023-03-12T11:20:50.104Z,5.09
2023-03-12T11:21:56.434Z,5.13
2023-03-12T11:22:58.205Z,5.13
2023-03-12T11:24:11.565Z,5.10
2023-03-12T11:25:22.231Z,5.15
2023-03-12T11:26:29.050Z,5.18
2023-03-12T11:27:38.144Z,5.20
2023-03-12T11:28:44.210Z,5.18
2023-03-12T11:29:51.263Z,5.14
2023-03-12T11:30:54.243Z,5.10
2023-03-12T11:32:01.981Z,5.08
2023-03-12T11:33:04.223Z,5.11
2023-03-12T11:34:09.471Z,5.17
2023-03-12T11:35:13.853Z,5.17
2023-03-12T11:36:38.774Z,5.12
2023-03-12T11:37:54.627Z,5.05
2023-03-12T11:39:04.375Z,5.05
2023-03-12T11:40:22.831Z,5.15
2023-03-12T11:41:37.757Z,5.17
2023-03-12T11:42:52.134Z,5.12
2023-03-12T11:44:05.479Z,5.09
2023-03-12T11:45:17.039Z,5.12
2023-03-12T11:46:30.229Z,5.12
2023-03-12T11:47:45.696Z,5.12
2023-03-12T11:48:54.992Z,5.05
2023-03-12T11:50:07.357Z,4.95
2023-03-12T11:51:19.218Z,4.98
2023-03-12T11:52:25.529Z,5.04
2023-03-12T11:53:49.109Z,5.09
2023-03-12T11:55:08.578Z,5.10
2023-03-12T11:56:18.138Z,5.10
2023-03-12T11:57:27.749Z,5.09
2023-03-12T11:58:46.768Z,5.08
2023-03-12T12:00:04.929Z,5.17
2023-03-12T12:01:21.237Z,5.38
2023-03-12T12:02:37.281Z,5.58
2023-03-12T12:03:58.349Z,5.78
2023-03-12T12:05:36.665Z,5.96
2023-03-12T12:06:48.292Z,6.14
2023-03-12T12:08:04.856Z,6.19
2023-03-12T12:09:16.810Z,6.34
2023-03-12T12:10:26.649Z,6.48
2023-03-12T12:11:33.760Z,6.61
2023-03-12T12:12:48.383Z,6.74
2023-03-12T12:13:58.027Z,6.84
2023-03-12T12:15:08.976Z,6.93
2023-03-12T12:16:22.952Z,7.11
2023-03-12T12:17:34.281Z,7.24
2023-03-12T12:18:52.324Z,7.41
2023-03-12T12:20:01.873Z,7.51
2023-03-12T12:21:09.994Z,7.45
2023-03-12T12:22:25.144Z,7.32
2023-03-12T12:23:38.364Z,7.29
2023-03-12T12:25:08.349Z,7.41
2023-03-12T12:26:11.890Z,7.51
2023-03-12T12:27:19.880Z,7.59
2023-03-12T12:28:38.860Z,7.58
2023-03-12T12:29:56.881Z,7.61
2023-03-12T12:31:05.270Z,7.72
2023-03-12T12:32:14.094Z,7.86
2023-03-12T12:33:32.136Z,8.07
2023-03-12T12:35:00.421Z,8.23
2023-03-12T12:36:02.930Z,8.37
2023-03-12T12:37:17.413Z,8.46
2023-03-12T12:38:29.810Z,8.54
2023-03-12T12:39:35.317Z,8.56
2023-03-12T12:40:41.982Z,8.67
2023-03-12T12:41:47.259Z,8.77
2023-03-12T12:42:57.107Z,8.80
2023-03-12T12:44:01.557Z,8.89
2023-03-12T12:45:05.735Z,9.05
2023-03-12T12:46:11.200Z,9.21
2023-03-12T12:47:18.383Z,9.32
2023-03-12T12:48:23.440Z,9.43
2023-03-12T12:49:30.687Z,9.50
2023-03-12T12:50:34.840Z,9.51
2023-03-12T12:51:41.537Z,9.49
2023-03-12T12:52:43.985Z,9.41
2023-03-12T12:53:52.577Z,9.18
2023-03-12T12:54:59.894Z,8.88
2023-03-12T12:56:09.158Z,8.71
2023-03-12T12:57:16.142Z,8.56
2023-03-12T12:58:21.308Z,8.50
2023-03-12T12:59:32.797Z,8.46
2023-03-12T13:00:45.125Z,8.40
2023-03-12T13:01:47.496Z,8.37
2023-03-12T13:02:50.817Z,8.41
2023-03-12T13:03:57.909Z,8.49
2023-03-12T13:05:01.147Z,8.50
2023-03-12T13:06:05.562Z,8.42
2023-03-12T13:07:35.381Z,8.32
2023-03-12T13:08:59.577Z,8.35
2023-03-12T13:10:07.949Z,8.44
2023-03-12T13:11:25.254Z,8.60
2023-03-12T13:12:32.610Z,8.62
2023-03-12T13:13:34.435Z,8.62
2023-03-12T13:14:40.582Z,8.49
2023-03-12T13:15:45.239Z,8.29
2023-03-12T13:16:48.446Z,8.08
2023-03-12T13:18:05.234Z,7.94
2023-03-12T13:19:19.921Z,7.70
2023-03-12T13:20:24.084Z,7.73
2023-03-12T13:21:31.543Z,7.89
2023-03-12T13:22:49.174Z,8.00
2023-03-12T13:23:58.599Z,8.05
2023-03-12T13:25:11.565Z,8.14
2023-03-12T13:26:20.449Z,8.16
2023-03-12T13:27:24.788Z,8.10
2023-03-12T13:28:34.853Z,8.00
2023-03-12T13:29:40.827Z,7.85
2023-03-12T13:30:48.242Z,7.81
2023-03-12T13:31:51.056Z,7.75
2023-03-12T13:33:06.800Z,7.75
2023-03-12T13:34:45.603Z,7.66
2023-03-12T13:36:13.149Z,7.50
2023-03-12T13:37:34.960Z,7.41
2023-03-12T13:38:41.038Z,7.25
2023-03-12T13:39:44.905Z,7.19
2023-03-12T13:41:01.033Z,7.23
2023-03-12T13:42:34.570Z,7.26
2023-03-12T13:43:56.303Z,7.33
2023-03-12T13:45:23.172Z,7.41
2023-03-12T13:46:33.610Z,7.50
2023-03-12T13:47:41.498Z,7.58
2023-03-12T13:48:46.016Z,7.60
2023-03-12T13:49:54.964Z,7.61
2023-03-12T13:50:58.931Z,7.62
2023-03-12T13:52:10.151Z,7.58
2023-03-12T13:53:16.463Z,7.54
2023-03-12T13:54:20.254Z,7.51
2023-03-12T13:55:26.476Z,7.50
2023-03-12T13:56:30.177Z,7.42
2023-03-12T13:57:40.180Z,7.32
2023-03-12T13:58:47.767Z,7.25
2023-03-12T13:59:51.540Z,7.22
2023-03-12T14:00:55.333Z,7.23
2023-03-12T14:02:01.942Z,7.28
2023-03-12T14:03:09.896Z,7.29
2023-03-12T14:04:16.113Z,7.24
2023-03-12T14:05:20.284Z,7.18
2023-03-12T14:06:24.485Z,7.16
2023-03-12T14:07:53.994Z,7.07
2023-03-12T14:09:14.750Z,7.03
2023-03-12T14:10:28.142Z,6.98
2023-03-12T14:11:40.234Z,6.97
2023-03-12T14:12:51.022Z,6.97
2023-03-12T14:14:24.925Z,6.89
2023-03-12T14:15:30.787Z,6.82
2023-03-12T14:16:35.759Z,6.79
2023-03-12T14:17:38.344Z,6.76
2023-03-12T14:18:44.918Z,6.74
2023-03-12T14:19:48.362Z,6.70
2023-03-12T14:20:55.166Z,6.63
2023-03-12T14:22:01.739Z,6.54